Strona główna
METAR-TAF:

METAR-TAF

Lotnisko :

Port lotniczy Langkawi

Langkawi, Malezja

Szerokość geograficzna: 06-20N, Długość geograficzna: 099-44E, wysokość: 8 m

Aktualna obserwacja pogody

Raport powstał 52 minut temu, godzina 06:00 UTC
Wiatr 4 kt z kierunków zmiennych
Temperatura 35°C
Wilgotność 60%
Ciśnienie 1008 hPa
Widzialność 10 km lub więcej
Mało chmury na wysokości 2200 ft

METAR: WMKL 280600Z VRB04KT 9999 FEW022 35/26 Q1008

czas: 14:52 (06:52 UTC)

Prognoza

Raport powstał 1 godzina i 52 minut temu, godzina 05:00 UTC
Prognoza ważna od 28 godzina 06 UTC do 29 godzina 06 UTC
Wiatr 10 kt od wschód
Widzialność 10 km lub więcej
Mało chmury na wysokości 2000 ft
Stopniowe zmiany
od 28 godzina 10 UTC do 28 godzina 12 UTC
Wiatr 6 kt od północno-północny wschód
Mało chmury na wysokości 2600 ft

TAF: WMKL 280500Z 2806/2906 08010KT 9999 FEW020 BECMG 2810/2812 03006KT FEW026

Obserwacja i prognoza pogody dla ponad 4000 lotnisk (raport METAR i TAF).

Dostępne stacje oznaczono żółtymi i czerwonymi punktami na mapie.

Najedź kursorem aby zobaczyć nazwę stacji.

Kliknij aby zobaczyć obserwacje i prognozy pogody.

Aby zmienić mapę: kliknij na zielony przycisk z czarnym krzyżykiem, aby powiększyć; na zielony przycisk z myślnikiem, aby pomniejszyć; na zielone strzałki, aby przejść do map sąsiednich.


METAR-TAF: